sensor_id;sensor_type;location;lat;lon;timestamp;pressure;altitude;pressure_sealevel;temperature;humidity
21706;BME280;11014;53.076;18.208;2023-04-16T00:00:06;101210.13;;;14.13;67.46
21706;BME280;11014;53.076;18.208;2023-04-16T00:02:57;101213.06;;;14.11;67.47
21706;BME280;11014;53.076;18.208;2023-04-16T00:05:26;101211.91;;;14.07;67.62
21706;BME280;11014;53.076;18.208;2023-04-16T00:07:55;101209.44;;;14.06;67.46
21706;BME280;11014;53.076;18.208;2023-04-16T00:10:26;101207.47;;;14.01;67.47
21706;BME280;11014;53.076;18.208;2023-04-16T00:12:54;101217.69;;;13.99;67.84
21706;BME280;11014;53.076;18.208;2023-04-16T00:15:23;101219.91;;;14.02;67.50
21706;BME280;11014;53.076;18.208;2023-04-16T00:17:52;101221.56;;;14.03;67.51
21706;BME280;11014;53.076;18.208;2023-04-16T00:20:22;101227.44;;;14.00;67.46
21706;BME280;11014;53.076;18.208;2023-04-16T00:22:51;101224.72;;;14.00;67.87
21706;BME280;11014;53.076;18.208;2023-04-16T00:25:19;101218.41;;;13.95;67.96
21706;BME280;11014;53.076;18.208;2023-04-16T00:27:49;101229.44;;;13.93;67.62
21706;BME280;11014;53.076;18.208;2023-04-16T00:30:17;101230.25;;;13.94;67.66
21706;BME280;11014;53.076;18.208;2023-04-16T00:32:47;101228.16;;;13.96;68.00
21706;BME280;11014;53.076;18.208;2023-04-16T00:35:16;101231.06;;;13.94;67.58
21706;BME280;11014;53.076;18.208;2023-04-16T00:37:45;101231.06;;;13.94;67.58
21706;BME280;11014;53.076;18.208;2023-04-16T00:40:13;101233.78;;;13.94;67.56
21706;BME280;11014;53.076;18.208;2023-04-16T00:42:42;101232.25;;;13.98;67.97
21706;BME280;11014;53.076;18.208;2023-04-16T00:45:11;101219.59;;;13.99;67.63
21706;BME280;11014;53.076;18.208;2023-04-16T00:47:40;101234.50;;;14.01;67.62
21706;BME280;11014;53.076;18.208;2023-04-16T00:50:09;101223.69;;;14.01;67.94
21706;BME280;11014;53.076;18.208;2023-04-16T00:52:39;101233.09;;;13.87;67.94
21706;BME280;11014;53.076;18.208;2023-04-16T00:55:08;101231.59;;;13.80;68.72
21706;BME280;11014;53.076;18.208;2023-04-16T00:57:44;101234.97;;;13.75;68.64
21706;BME280;11014;53.076;18.208;2023-04-16T01:00:13;101231.69;;;13.73;68.93
21706;BME280;11014;53.076;18.208;2023-04-16T01:02:44;101233.19;;;13.92;68.52
21706;BME280;11014;53.076;18.208;2023-04-16T01:05:13;101240.16;;;13.77;68.17
21706;BME280;11014;53.076;18.208;2023-04-16T01:07:43;101232.63;;;13.67;68.84
21706;BME280;11014;53.076;18.208;2023-04-16T01:10:11;101240.38;;;13.63;69.02
21706;BME280;11014;53.076;18.208;2023-04-16T01:12:40;101243.31;;;13.62;69.08
21706;BME280;11014;53.076;18.208;2023-04-16T01:15:11;101236.88;;;13.63;69.21
21706;BME280;11014;53.076;18.208;2023-04-16T01:17:39;101237.09;;;13.61;69.32
21706;BME280;11014;53.076;18.208;2023-04-16T01:20:08;101240.63;;;13.62;69.32
21706;BME280;11014;53.076;18.208;2023-04-16T01:22:38;101246.50;;;13.59;69.31
21706;BME280;11014;53.076;18.208;2023-04-16T01:25:13;101246.75;;;13.57;69.27
21706;BME280;11014;53.076;18.208;2023-04-16T01:27:43;101249.44;;;13.57;69.61
21706;BME280;11014;53.076;18.208;2023-04-16T01:30:12;101235.69;;;13.59;69.58
21706;BME280;11014;53.076;18.208;2023-04-16T01:32:52;101238.63;;;13.57;69.54
21706;BME280;11014;53.076;18.208;2023-04-16T01:35:21;101243.44;;;13.55;69.53
21706;BME280;11014;53.076;18.208;2023-04-16T01:37:50;101245.34;;;13.55;69.69
21706;BME280;11014;53.076;18.208;2023-04-16T01:40:19;101242.03;;;13.53;69.80
21706;BME280;11014;53.076;18.208;2023-04-16T01:42:48;101247.19;;;13.54;69.81
21706;BME280;11014;53.076;18.208;2023-04-16T01:45:18;101248.63;;;13.57;69.81
21706;BME280;11014;53.076;18.208;2023-04-16T01:47:48;101243.44;;;13.55;69.79
21706;BME280;11014;53.076;18.208;2023-04-16T01:50:19;101240.41;;;13.52;69.59
21706;BME280;11014;53.076;18.208;2023-04-16T01:52:48;101244.25;;;13.56;69.63
21706;BME280;11014;53.076;18.208;2023-04-16T01:55:17;101246.50;;;13.59;69.71
21706;BME280;11014;53.076;18.208;2023-04-16T01:57:45;101247.53;;;13.58;69.69
21706;BME280;11014;53.076;18.208;2023-04-16T02:00:15;101247.78;;;13.56;69.54
21706;BME280;11014;53.076;18.208;2023-04-16T02:02:47;101246.97;;;13.56;69.49
21706;BME280;11014;53.076;18.208;2023-04-16T02:05:25;101248.81;;;13.55;69.71
21706;BME280;11014;53.076;18.208;2023-04-16T02:07:54;101240.72;;;13.55;69.78
21706;BME280;11014;53.076;18.208;2023-04-16T02:10:22;101251.53;;;13.55;69.75
21706;BME280;11014;53.076;18.208;2023-04-16T02:12:52;101243.44;;;13.55;69.45
21706;BME280;11014;53.076;18.208;2023-04-16T02:15:20;101252.81;;;13.53;69.67
21706;BME280;11014;53.076;18.208;2023-04-16T02:17:50;101252.25;;;13.51;69.82
21706;BME280;11014;53.076;18.208;2023-04-16T02:20:25;101252.50;;;13.49;70.04
21706;BME280;11014;53.076;18.208;2023-04-16T02:23:00;101245.19;;;13.50;69.82
21706;BME280;11014;53.076;18.208;2023-04-16T02:25:29;101252.81;;;13.53;69.73
21706;BME280;11014;53.076;18.208;2023-04-16T02:27:58;101247.41;;;13.53;69.68
21706;BME280;11014;53.076;18.208;2023-04-16T02:30:38;101258.22;;;13.53;69.60
21706;BME280;11014;53.076;18.208;2023-04-16T02:33:09;101258.22;;;13.53;69.85
21706;BME280;11014;53.076;18.208;2023-04-16T02:35:45;101254.13;;;13.50;69.68
21706;BME280;11014;53.076;18.208;2023-04-16T02:38:16;101253.78;;;13.47;69.95
21706;BME280;11014;53.076;18.208;2023-04-16T02:40:44;101256.94;;;13.44;69.98
21706;BME280;11014;53.076;18.208;2023-04-16T02:43:13;101252.59;;;13.43;70.01
21706;BME280;11014;53.076;18.208;2023-04-16T02:45:42;101255.88;;;13.45;70.17
21706;BME280;11014;53.076;18.208;2023-04-16T02:48:12;101258.00;;;13.43;70.07
21706;BME280;11014;53.076;18.208;2023-04-16T02:50:40;101254.25;;;13.44;70.15
21706;BME280;11014;53.076;18.208;2023-04-16T02:53:09;101261.25;;;13.45;70.10
21706;BME280;11014;53.076;18.208;2023-04-16T02:55:37;101259.66;;;13.44;69.97
21706;BME280;11014;53.076;18.208;2023-04-16T02:58:06;101261.72;;;13.42;70.23
21706;BME280;11014;53.076;18.208;2023-04-16T03:00:34;101261.16;;;13.40;70.16
21706;BME280;11014;53.076;18.208;2023-04-16T03:03:03;101259.50;;;13.39;70.30
21706;BME280;11014;53.076;18.208;2023-04-16T03:05:31;101263.03;;;13.39;70.39
21706;BME280;11014;53.076;18.208;2023-04-16T03:08:02;101266.78;;;13.38;69.98
21706;BME280;11014;53.076;18.208;2023-04-16T03:10:30;101269.72;;;13.37;70.31
21706;BME280;11014;53.076;18.208;2023-04-16T03:12:59;101275.09;;;13.37;70.26
21706;BME280;11014;53.076;18.208;2023-04-16T03:15:29;101275.94;;;13.37;70.15
21706;BME280;11014;53.076;18.208;2023-04-16T03:17:58;101276.75;;;13.38;70.08
21706;BME280;11014;53.076;18.208;2023-04-16T03:20:28;101289.06;;;13.34;70.16
21706;BME280;11014;53.076;18.208;2023-04-16T03:22:56;101282.25;;;13.31;70.29
21706;BME280;11014;53.076;18.208;2023-04-16T03:25:25;101284.75;;;13.33;70.45
21706;BME280;11014;53.076;18.208;2023-04-16T03:27:54;101290.94;;;13.33;70.31
21706;BME280;11014;53.076;18.208;2023-04-16T03:30:22;101282.84;;;13.33;70.61
21706;BME280;11014;53.076;18.208;2023-04-16T03:32:51;101296.09;;;13.35;70.39
21706;BME280;11014;53.076;18.208;2023-04-16T03:35:21;101288.00;;;13.35;70.30
21706;BME280;11014;53.076;18.208;2023-04-16T03:37:49;101295.06;;;13.36;70.23
21706;BME280;11014;53.076;18.208;2023-04-16T03:40:19;101296.94;;;13.35;70.29
21706;BME280;11014;53.076;18.208;2023-04-16T03:42:48;101295.53;;;13.33;70.31
21706;BME280;11014;53.076;18.208;2023-04-16T03:45:18;101299.50;;;13.30;70.32
21706;BME280;11014;53.076;18.208;2023-04-16T03:47:48;101298.69;;;13.30;70.25
21706;BME280;11014;53.076;18.208;2023-04-16T03:50:23;101304.91;;;13.30;70.06
21706;BME280;11014;53.076;18.208;2023-04-16T03:52:52;101309.69;;;13.28;70.08
21706;BME280;11014;53.076;18.208;2023-04-16T03:55:20;101309.47;;;13.30;70.03
21706;BME280;11014;53.076;18.208;2023-04-16T03:57:49;101315.09;;;13.28;70.10
21706;BME280;11014;53.076;18.208;2023-04-16T04:00:17;101316.16;;;13.27;70.19
21706;BME280;11014;53.076;18.208;2023-04-16T04:02:57;101316.38;;;13.26;70.17
21706;BME280;11014;53.076;18.208;2023-04-16T04:05:25;101314.75;;;13.25;70.22
21706;BME280;11014;53.076;18.208;2023-04-16T04:07:54;101313.09;;;13.24;70.67
21706;BME280;11014;53.076;18.208;2023-04-16T04:10:23;101318.94;;;13.21;70.39
21706;BME280;11014;53.076;18.208;2023-04-16T04:12:51;101329.75;;;13.21;70.78
21706;BME280;11014;53.076;18.208;2023-04-16T04:15:20;101324.81;;;13.18;70.84
21706;BME280;11014;53.076;18.208;2023-04-16T04:17:48;101331.03;;;13.18;70.78
21706;BME280;11014;53.076;18.208;2023-04-16T04:20:17;101329.75;;;13.21;70.49
21706;BME280;11014;53.076;18.208;2023-04-16T04:22:49;101330.78;;;13.20;70.52
21706;BME280;11014;53.076;18.208;2023-04-16T04:25:20;101326.47;;;13.19;70.67
21706;BME280;11014;53.076;18.208;2023-04-16T04:27:49;101338.88;;;13.20;70.88
21706;BME280;11014;53.076;18.208;2023-04-16T04:30:17;101337.84;;;13.21;70.88
21706;BME280;11014;53.076;18.208;2023-04-16T04:32:46;101349.31;;;13.16;70.83
21706;BME280;11014;53.076;18.208;2023-04-16T04:35:16;101343.09;;;13.16;71.17
21706;BME280;11014;53.076;18.208;2023-04-16T04:37:45;101348.50;;;13.16;71.21
21706;BME280;11014;53.076;18.208;2023-04-16T04:40:17;101343.69;;;13.18;71.30
21706;BME280;11014;53.076;18.208;2023-04-16T04:42:46;101346.38;;;13.18;71.14
21706;BME280;11014;53.076;18.208;2023-04-16T04:45:15;101337.25;;;13.19;71.32
21706;BME280;11014;53.076;18.208;2023-04-16T04:47:44;101349.09;;;13.18;71.11
21706;BME280;11014;53.076;18.208;2023-04-16T04:50:13;101352.22;;;13.15;71.27
21706;BME280;11014;53.076;18.208;2023-04-16T04:52:42;101347.91;;;13.14;71.56
21706;BME280;11014;53.076;18.208;2023-04-16T04:55:11;101353.88;;;13.16;71.60
21706;BME280;11014;53.076;18.208;2023-04-16T04:57:41;101353.06;;;13.15;71.63
21706;BME280;11014;53.076;18.208;2023-04-16T05:00:12;101355.75;;;13.15;71.78
21706;BME280;11014;53.076;18.208;2023-04-16T05:02:49;101354.13;;;13.14;71.58
21706;BME280;11014;53.076;18.208;2023-04-16T05:05:20;101361.41;;;13.14;71.70
21706;BME280;11014;53.076;18.208;2023-04-16T05:07:53;101359.75;;;13.13;72.09
21706;BME280;11014;53.076;18.208;2023-04-16T05:10:21;101362.69;;;13.11;71.77
21706;BME280;11014;53.076;18.208;2023-04-16T05:12:50;101362.22;;;13.14;72.06
21706;BME280;11014;53.076;18.208;2023-04-16T05:15:19;101373.00;;;13.14;72.13
21706;BME280;11014;53.076;18.208;2023-04-16T05:17:48;101367.63;;;13.14;71.89
21706;BME280;11014;53.076;18.208;2023-04-16T05:20:16;101375.94;;;13.13;72.18
21706;BME280;11014;53.076;18.208;2023-04-16T05:22:45;101375.09;;;13.12;72.06
21706;BME280;11014;53.076;18.208;2023-04-16T05:25:13;101380.50;;;13.12;71.81
21706;BME280;11014;53.076;18.208;2023-04-16T05:27:42;101369.34;;;13.09;71.98
21706;BME280;11014;53.076;18.208;2023-04-16T05:30:11;101380.16;;;13.09;72.17
21706;BME280;11014;53.076;18.208;2023-04-16T05:32:40;101378.50;;;13.07;72.19
21706;BME280;11014;53.076;18.208;2023-04-16T05:35:08;101385.34;;;13.03;72.62
21706;BME280;11014;53.076;18.208;2023-04-16T05:37:37;101384.31;;;13.04;72.66
21706;BME280;11014;53.076;18.208;2023-04-16T05:40:06;101383.88;;;13.07;72.31
21706;BME280;11014;53.076;18.208;2023-04-16T05:42:38;101379.66;;;13.12;72.30
21706;BME280;11014;53.076;18.208;2023-04-16T05:45:07;101392.09;;;13.13;72.43
21706;BME280;11014;53.076;18.208;2023-04-16T05:47:43;101392.09;;;13.13;72.58
21706;BME280;11014;53.076;18.208;2023-04-16T05:50:12;101393.78;;;13.14;72.67
21706;BME280;11014;53.076;18.208;2023-04-16T05:52:43;101396.22;;;13.15;72.28
21706;BME280;11014;53.076;18.208;2023-04-16T05:55:11;101403.28;;;13.16;72.47
21706;BME280;11014;53.076;18.208;2023-04-16T05:57:40;101394.34;;;13.16;72.60
21706;BME280;11014;53.076;18.208;2023-04-16T06:00:09;101405.16;;;13.16;72.37
21706;BME280;11014;53.076;18.208;2023-04-16T06:02:41;101393.31;;;13.17;72.59
21706;BME280;11014;53.076;18.208;2023-04-16T06:05:10;101402.56;;;13.21;72.15
21706;BME280;11014;53.076;18.208;2023-04-16T06:07:39;101397.78;;;13.23;72.34
21706;BME280;11014;53.076;18.208;2023-04-16T06:10:07;101407.53;;;13.24;72.28
21706;BME280;11014;53.076;18.208;2023-04-16T06:12:36;101407.53;;;13.24;72.11
21706;BME280;11014;53.076;18.208;2023-04-16T06:15:05;101416.06;;;13.21;72.02
21706;BME280;11014;53.076;18.208;2023-04-16T06:17:34;101416.06;;;13.21;72.12
21706;BME280;11014;53.076;18.208;2023-04-16T06:20:03;101416.19;;;13.26;72.11
21706;BME280;11014;53.076;18.208;2023-04-16T06:22:33;101425.94;;;13.27;71.91
21706;BME280;11014;53.076;18.208;2023-04-16T06:25:02;101427.63;;;13.28;71.66
21706;BME280;11014;53.076;18.208;2023-04-16T06:27:32;101434.03;;;13.27;71.38
21706;BME280;11014;53.076;18.208;2023-04-16T06:30:00;101434.50;;;13.24;71.56
21706;BME280;11014;53.076;18.208;2023-04-16T06:32:29;101438.25;;;13.23;71.40
21706;BME280;11014;53.076;18.208;2023-04-16T06:34:58;101432.72;;;13.18;71.39
21706;BME280;11014;53.076;18.208;2023-04-16T06:37:26;101444.72;;;13.22;71.56
21706;BME280;11014;53.076;18.208;2023-04-16T06:39:55;101433.81;;;13.28;71.47
21706;BME280;11014;53.076;18.208;2023-04-16T06:42:23;101432.69;;;13.36;71.22
21706;BME280;11014;53.076;18.208;2023-04-16T06:44:52;101435.28;;;13.42;71.08
21706;BME280;11014;53.076;18.208;2023-04-16T06:47:22;101434.81;;;13.45;70.90
21706;BME280;11014;53.076;18.208;2023-04-16T06:49:50;101438.22;;;13.41;71.10
21706;BME280;11014;53.076;18.208;2023-04-16T06:52:19;101441.50;;;13.43;71.18
21706;BME280;11014;53.076;18.208;2023-04-16T06:54:51;101438.09;;;13.47;70.85
21706;BME280;11014;53.076;18.208;2023-04-16T06:57:20;101436.38;;;13.53;70.36
21706;BME280;11014;53.076;18.208;2023-04-16T06:59:48;101450.47;;;13.55;70.17
21706;BME280;11014;53.076;18.208;2023-04-16T07:02:17;101444.84;;;13.56;70.05
21706;BME280;11014;53.076;18.208;2023-04-16T07:04:45;101442.50;;;13.60;70.05
21706;BME280;11014;53.076;18.208;2023-04-16T07:07:14;101449.66;;;13.66;70.00
21706;BME280;11014;53.076;18.208;2023-04-16T07:09:43;101454.75;;;13.74;69.92
21706;BME280;11014;53.076;18.208;2023-04-16T07:12:11;101460.16;;;13.74;69.76
21706;BME280;11014;53.076;18.208;2023-04-16T07:14:40;101457.66;;;13.73;69.67
21706;BME280;11014;53.076;18.208;2023-04-16T07:17:09;101459.91;;;13.76;69.68
21706;BME280;11014;53.076;18.208;2023-04-16T07:19:37;101458.63;;;13.78;69.41
21706;BME280;11014;53.076;18.208;2023-04-16T07:22:06;101471.00;;;13.97;69.25
21706;BME280;11014;53.076;18.208;2023-04-16T07:24:35;101460.91;;;14.04;68.57
21706;BME280;11014;53.076;18.208;2023-04-16T07:27:03;101462.56;;;14.05;68.27
21706;BME280;11014;53.076;18.208;2023-04-16T07:29:32;101471.25;;;14.07;68.03
21706;BME280;11014;53.076;18.208;2023-04-16T07:32:10;101467.63;;;14.13;68.06
21706;BME280;11014;53.076;18.208;2023-04-16T07:34:42;101463.97;;;14.19;68.01
21706;BME280;11014;53.076;18.208;2023-04-16T07:37:13;101465.03;;;14.07;68.16
21706;BME280;11014;53.076;18.208;2023-04-16T07:39:41;101472.19;;;14.01;68.23
21706;BME280;11014;53.076;18.208;2023-04-16T07:42:10;101473.81;;;14.02;68.40
21706;BME280;11014;53.076;18.208;2023-04-16T07:44:38;101479.13;;;14.09;68.44
21706;BME280;11014;53.076;18.208;2023-04-16T07:47:11;101476.56;;;14.14;68.04
21706;BME280;11014;53.076;18.208;2023-04-16T07:49:39;101483.25;;;14.11;68.01
21706;BME280;11014;53.076;18.208;2023-04-16T07:52:08;101477.63;;;14.24;67.31
21706;BME280;11014;53.076;18.208;2023-04-16T07:54:36;101478.81;;;14.29;66.89
21706;BME280;11014;53.076;18.208;2023-04-16T07:57:32;101482.81;;;14.38;66.84
21706;BME280;11014;53.076;18.208;2023-04-16T08:00:00;101490.34;;;14.36;66.86
21706;BME280;11014;53.076;18.208;2023-04-16T08:02:42;101483.44;;;14.40;66.73
21706;BME280;11014;53.076;18.208;2023-04-16T08:05:11;101485.78;;;14.48;66.48
21706;BME280;11014;53.076;18.208;2023-04-16T08:07:41;101492.59;;;14.50;66.46
21706;BME280;11014;53.076;18.208;2023-04-16T08:10:09;101493.41;;;14.51;66.17
21706;BME280;11014;53.076;18.208;2023-04-16T08:12:38;101497.19;;;14.50;65.99
21706;BME280;11014;53.076;18.208;2023-04-16T08:15:07;101496.22;;;14.33;66.40
21706;BME280;11014;53.076;18.208;2023-04-16T08:17:37;101505.00;;;14.28;67.02
21706;BME280;11014;53.076;18.208;2023-04-16T08:20:06;101497.94;;;14.27;66.96
21706;BME280;11014;53.076;18.208;2023-04-16T08:22:35;101505.84;;;14.29;67.00
21706;BME280;11014;53.076;18.208;2023-04-16T08:25:04;101506.09;;;14.39;66.41
21706;BME280;11014;53.076;18.208;2023-04-16T08:27:33;101505.63;;;14.42;66.58
21706;BME280;11014;53.076;18.208;2023-04-16T08:30:01;101507.63;;;14.46;66.46
21706;BME280;11014;53.076;18.208;2023-04-16T08:32:30;101514.09;;;14.57;66.65
21706;BME280;11014;53.076;18.208;2023-04-16T08:34:58;101512.00;;;14.59;66.24
21706;BME280;11014;53.076;18.208;2023-04-16T08:37:27;101523.13;;;14.62;66.65
21706;BME280;11014;53.076;18.208;2023-04-16T08:39:55;101525.63;;;14.64;66.57
21706;BME280;11014;53.076;18.208;2023-04-16T08:42:38;101524.34;;;14.66;66.52
21706;BME280;11014;53.076;18.208;2023-04-16T08:45:13;101532.66;;;14.65;66.69
21706;BME280;11014;53.076;18.208;2023-04-16T08:47:49;101526.09;;;14.61;66.65
21706;BME280;11014;53.076;18.208;2023-04-16T08:50:23;101528.22;;;14.59;66.73
21706;BME280;11014;53.076;18.208;2023-04-16T08:52:59;101539.50;;;14.56;66.97
21706;BME280;11014;53.076;18.208;2023-04-16T08:55:44;101531.97;;;14.58;67.10
21706;BME280;11014;53.076;18.208;2023-04-16T08:58:20;101540.66;;;14.37;67.51
21706;BME280;11014;53.076;18.208;2023-04-16T09:00:49;101546.28;;;14.35;68.12
21706;BME280;11014;53.076;18.208;2023-04-16T09:03:19;101551.09;;;14.33;68.20
21706;BME280;11014;53.076;18.208;2023-04-16T09:05:49;101544.03;;;14.32;68.24
21706;BME280;11014;53.076;18.208;2023-04-16T09:08:18;101549.06;;;14.29;68.51
21706;BME280;11014;53.076;18.208;2023-04-16T09:10:48;101558.59;;;14.31;68.59
21706;BME280;11014;53.076;18.208;2023-04-16T09:13:18;101555.69;;;14.33;68.87
21706;BME280;11014;53.076;18.208;2023-04-16T09:16:02;101560.16;;;14.39;68.79
21706;BME280;11014;53.076;18.208;2023-04-16T09:18:57;101566.16;;;14.52;68.22
21706;BME280;11014;53.076;18.208;2023-04-16T09:21:25;101566.28;;;14.46;67.90
21706;BME280;11014;53.076;18.208;2023-04-16T09:23:55;101571.22;;;14.49;67.95
21706;BME280;11014;53.076;18.208;2023-04-16T09:26:24;101571.34;;;14.54;67.82
21706;BME280;11014;53.076;18.208;2023-04-16T09:28:54;101574.19;;;14.59;67.96
21706;BME280;11014;53.076;18.208;2023-04-16T09:31:23;101568.91;;;14.64;68.14
21706;BME280;11014;53.076;18.208;2023-04-16T09:34:07;101577.94;;;14.69;67.96
21706;BME280;11014;53.076;18.208;2023-04-16T09:37:14;101571.94;;;14.79;67.83
21706;BME280;11014;53.076;18.208;2023-04-16T09:39:52;101579.22;;;14.78;67.93
21706;BME280;11014;53.076;18.208;2023-04-16T09:42:31;101576.06;;;14.81;67.70
21706;BME280;11014;53.076;18.208;2023-04-16T09:45:00;101578.91;;;14.75;68.06
21706;BME280;11014;53.076;18.208;2023-04-16T09:48:02;101579.59;;;14.82;68.00
21706;BME280;11014;53.076;18.208;2023-04-16T09:50:32;101581.94;;;14.90;67.82
21706;BME280;11014;53.076;18.208;2023-04-16T09:53:01;101581.22;;;14.95;67.35
21706;BME280;11014;53.076;18.208;2023-04-16T09:55:31;101583.00;;;15.01;67.47
21706;BME280;11014;53.076;18.208;2023-04-16T09:58:00;101591.00;;;15.07;67.28
21706;BME280;11014;53.076;18.208;2023-04-16T10:00:29;101589.91;;;15.08;67.62
21706;BME280;11014;53.076;18.208;2023-04-16T10:03:04;101593.25;;;15.10;67.48
21706;BME280;11014;53.076;18.208;2023-04-16T10:05:34;101589.44;;;15.11;67.28
21706;BME280;11014;53.076;18.208;2023-04-16T10:08:11;101597.56;;;15.11;67.31
21706;BME280;11014;53.076;18.208;2023-04-16T10:10:41;101593.81;;;15.12;67.08
21706;BME280;11014;53.076;18.208;2023-04-16T10:13:09;101594.28;;;15.09;67.20
21706;BME280;11014;53.076;18.208;2023-04-16T10:15:40;101598.03;;;15.08;67.15
21706;BME280;11014;53.076;18.208;2023-04-16T10:18:41;101601.69;;;15.14;67.32
21706;BME280;11014;53.076;18.208;2023-04-16T10:21:12;101606.78;;;15.10;67.50
21706;BME280;11014;53.076;18.208;2023-04-16T10:24:08;101615.00;;;15.15;67.45
21706;BME280;11014;53.076;18.208;2023-04-16T10:26:46;101610.16;;;15.06;67.40
21706;BME280;11014;53.076;18.208;2023-04-16T10:29:20;101611.34;;;15.10;67.39
21706;BME280;11014;53.076;18.208;2023-04-16T10:35:32;101609.81;;;15.25;67.50
21706;BME280;11014;53.076;18.208;2023-04-16T10:38:26;101613.44;;;15.19;67.13
21706;BME280;11014;53.076;18.208;2023-04-16T10:40:59;101607.47;;;15.17;66.69
21706;BME280;11014;53.076;18.208;2023-04-16T10:43:29;101619.34;;;15.16;66.48
21706;BME280;11014;53.076;18.208;2023-04-16T10:46:23;101623.59;;;15.24;66.53
21706;BME280;11014;53.076;18.208;2023-04-16T10:48:53;101615.09;;;15.20;66.17
21706;BME280;11014;53.076;18.208;2023-04-16T10:51:34;101613.91;;;15.28;66.00
21706;BME280;11014;53.076;18.208;2023-04-16T10:54:18;101618.63;;;15.32;65.74
21706;BME280;11014;53.076;18.208;2023-04-16T10:56:49;101629.22;;;15.34;65.73
21706;BME280;11014;53.076;18.208;2023-04-16T10:59:19;101629.47;;;15.32;65.28
21706;BME280;11014;53.076;18.208;2023-04-16T11:01:53;101629.47;;;15.32;64.82
21706;BME280;11014;53.076;18.208;2023-04-16T11:07:06;101633.69;;;15.28;64.72
21706;BME280;11014;53.076;18.208;2023-04-16T11:10:00;101636.41;;;15.28;64.41
21706;BME280;11014;53.076;18.208;2023-04-16T11:12:41;101633.69;;;15.28;64.37
21706;BME280;11014;53.076;18.208;2023-04-16T11:15:16;101630.16;;;15.16;64.89
21706;BME280;11014;53.076;18.208;2023-04-16T11:18:10;101638.28;;;15.16;64.86
21706;BME280;11014;53.076;18.208;2023-04-16T11:20:40;101635.00;;;15.14;64.90
21706;BME280;11014;53.076;18.208;2023-04-16T11:23:09;101641.47;;;15.13;64.68
21706;BME280;11014;53.076;18.208;2023-04-16T11:25:40;101643.09;;;15.14;64.85
21706;BME280;11014;53.076;18.208;2023-04-16T11:28:08;101645.69;;;15.09;64.94
21706;BME280;11014;53.076;18.208;2023-04-16T11:30:38;101641.59;;;15.07;64.80
21706;BME280;11014;53.076;18.208;2023-04-16T11:33:08;101657.34;;;15.10;64.67
21706;BME280;11014;53.076;18.208;2023-04-16T11:35:38;101656.53;;;15.09;64.92
21706;BME280;11014;53.076;18.208;2023-04-16T11:38:07;101654.88;;;15.08;64.82
21706;BME280;11014;53.076;18.208;2023-04-16T11:40:36;101657.25;;;15.05;64.96
21706;BME280;11014;53.076;18.208;2023-04-16T11:43:15;101662.28;;;15.01;64.50
21706;BME280;11014;53.076;18.208;2023-04-16T11:46:01;101669.47;;;14.96;64.88
21706;BME280;11014;53.076;18.208;2023-04-16T11:48:51;101660.88;;;15.10;64.79
21706;BME280;11014;53.076;18.208;2023-04-16T11:51:19;101665.69;;;15.08;65.22
21706;BME280;11014;53.076;18.208;2023-04-16T11:53:52;101668.41;;;15.08;64.90
21706;BME280;11014;53.076;18.208;2023-04-16T11:56:33;101670.06;;;15.09;65.05
21706;BME280;11014;53.076;18.208;2023-04-16T11:59:06;101662.19;;;15.08;65.18
21706;BME280;11014;53.076;18.208;2023-04-16T12:01:37;101664.66;;;15.09;64.87
21706;BME280;11014;53.076;18.208;2023-04-16T12:04:07;101667.47;;;15.14;64.59
21706;BME280;11014;53.076;18.208;2023-04-16T12:06:36;101670.53;;;15.18;64.69
21706;BME280;11014;53.076;18.208;2023-04-16T12:09:24;101669.47;;;15.30;64.56
21706;BME280;11014;53.076;18.208;2023-04-16T12:11:53;101664.28;;;15.29;64.29
21706;BME280;11014;53.076;18.208;2023-04-16T12:14:22;101666.19;;;15.28;64.20
21706;BME280;11014;53.076;18.208;2023-04-16T12:16:50;101671.84;;;15.27;64.05
21706;BME280;11014;53.076;18.208;2023-04-16T12:19:20;101668.19;;;15.21;63.76
21706;BME280;11014;53.076;18.208;2023-04-16T12:21:49;101668.41;;;15.20;63.94
21706;BME280;11014;53.076;18.208;2023-04-16T12:24:31;101675.22;;;15.22;63.68
21706;BME280;11014;53.076;18.208;2023-04-16T12:27:10;101679.59;;;15.23;63.79
21706;BME280;11014;53.076;18.208;2023-04-16T12:29:38;101677.84;;;15.40;63.47
21706;BME280;11014;53.076;18.208;2023-04-16T12:32:20;101689.22;;;15.19;63.50
21706;BME280;11014;53.076;18.208;2023-04-16T12:34:50;101690.19;;;15.13;63.65
21706;BME280;11014;53.076;18.208;2023-04-16T12:37:19;101681.72;;;15.10;63.64
21706;BME280;11014;53.076;18.208;2023-04-16T12:39:47;101680.88;;;15.09;63.59
21706;BME280;11014;53.076;18.208;2023-04-16T12:42:16;101678.41;;;15.08;63.38
21706;BME280;11014;53.076;18.208;2023-04-16T12:48:07;101679.13;;;15.26;63.10
21706;BME280;11014;53.076;18.208;2023-04-16T12:50:35;101684.66;;;15.31;63.19
21706;BME280;11014;53.076;18.208;2023-04-16T12:53:04;101680.66;;;15.34;63.03
21706;BME280;11014;53.076;18.208;2023-04-16T12:55:32;101683.94;;;15.36;63.26
21706;BME280;11014;53.076;18.208;2023-04-16T12:58:01;101683.59;;;15.32;62.97
21706;BME280;11014;53.076;18.208;2023-04-16T13:00:29;101678.78;;;15.34;62.99
21706;BME280;11014;53.076;18.208;2023-04-16T13:02:58;101690.88;;;15.20;63.46
21706;BME280;11014;53.076;18.208;2023-04-16T13:05:26;101686.19;;;15.16;63.50
21706;BME280;11014;53.076;18.208;2023-04-16T13:07:55;101688.28;;;15.14;63.94
21706;BME280;11014;53.076;18.208;2023-04-16T13:10:23;101694.78;;;15.24;63.58